Mecca, California
Current Conditions -  °F | °C
As of 3:52 AM on Friday 24 Oct 2014 (Local Time) from KTRM Reporting Station
Clear Clear  
Wind Chill: 64°   Ceiling: Unl
Heat Index: 64°   Visibility: 10mi
Dew Point: 44°   Wind: 8mph
Humidity: 48%   Direction: 360°N
Pressure: 29.89"   Gusts: NA
Location:  33.57°N, 116.08°W
Report Text: KTRM 241052Z AUTO 36007KT 10SM CLR 18/07 A2989 RMK AO2 SLP125 T01780067 TSNO
Loading
Personal Weather Stations






























Interactive Weather Map
Tropical Storm Tracking
New forecast layout! Learn more

10-Day Weather Forecast

Advertisements
Track Severe Weather on mobile